Time;durP1;ratioP1;P1;durP2;ratioP2;P2;SDS_P1;SDS_P2;PMS_P1;PMS_P2;Temp;Humidity;BMP_temperature;BMP_pressure;BME280_temperature;BME280_humidity;BME280_pressure;Samples;Min_cycle;Max_cycle;Signal;HPM_P1;HPM_P2
2022/07/27 00:00:06;;;;;;;7.62;6.32;;;;;;;22.44;58.93;99645.00;4459206;32;34919;-84
2022/07/27 00:02:38;;;;;;;7.70;5.55;;;;;;;22.52;58.58;99642.44;4444455;32;33447;-84
2022/07/27 00:05:07;;;;;;;5.93;5.18;;;;;;;22.79;57.53;99641.63;4462974;32;33445;-84
2022/07/27 00:07:34;;;;;;;10.65;6.28;;;;;;;22.63;57.76;99647.59;4445256;32;33593;-84
2022/07/27 00:10:04;;;;;;;6.05;5.45;;;;;;;22.67;57.57;99649.00;4470872;32;33496;-85
2022/07/27 00:12:33;;;;;;;8.55;6.18;;;;;;;22.59;57.49;99654.28;4460188;32;32960;-85
2022/07/27 00:15:03;;;;;;;8.63;5.53;;;;;;;22.65;57.01;99651.03;4461412;32;34039;-85
2022/07/27 00:17:31;;;;;;;10.75;5.60;;;;;;;22.30;58.13;99657.06;4444415;32;33575;-84
2022/07/27 00:19:59;;;;;;;7.43;5.20;;;;;;;22.42;57.83;99652.38;4456800;32;33579;-85
2022/07/27 00:22:27;;;;;;;5.53;4.93;;;;;;;22.48;57.24;99649.94;4447880;32;33024;-85
2022/07/27 00:24:54;;;;;;;9.88;5.50;;;;;;;22.26;57.83;99649.44;4447543;32;33759;-85
2022/07/27 00:27:22;;;;;;;7.78;4.43;;;;;;;22.37;57.46;99655.50;4461614;32;35230;-85
2022/07/27 00:29:50;;;;;;;6.72;5.43;;;;;;;22.24;57.52;99657.66;4445809;32;32123;-85
2022/07/27 00:32:18;;;;;;;7.32;5.43;;;;;;;22.25;57.42;99651.28;4463339;32;34099;-85
2022/07/27 00:34:47;;;;;;;5.82;5.10;;;;;;;21.98;57.95;99660.06;4446552;32;33776;-85
2022/07/27 00:37:16;;;;;;;8.52;4.55;;;;;;;22.22;57.17;99649.75;4449018;32;33719;-86
2022/07/27 00:39:44;;;;;;;6.80;5.32;;;;;;;22.19;57.33;99655.41;4473221;32;33422;-86
2022/07/27 00:42:12;;;;;;;5.95;4.53;;;;;;;22.09;57.55;99641.09;4446560;32;32673;-86
2022/07/27 00:44:40;;;;;;;5.10;4.50;;;;;;;22.24;56.63;99645.06;4458613;32;33472;-85
2022/07/27 00:47:08;;;;;;;5.97;5.37;;;;;;;22.06;57.13;99652.13;4474322;32;33581;-86
2022/07/27 00:49:37;;;;;;;5.87;4.72;;;;;;;22.16;57.15;99653.00;4445536;32;33376;-86
2022/07/27 00:52:06;;;;;;;13.95;5.18;;;;;;;22.19;57.05;99649.16;4451064;32;33805;-86
2022/07/27 00:54:34;;;;;;;7.68;4.82;;;;;;;22.16;56.94;99653.00;4461173;32;33577;-86
2022/07/27 00:57:03;;;;;;;4.85;4.18;;;;;;;22.15;56.69;99655.81;4468470;32;33410;-86
2022/07/27 00:59:31;;;;;;;4.90;4.30;;;;;;;21.89;57.00;99650.19;4451214;32;33494;-85
2022/07/27 01:01:59;;;;;;;7.20;4.22;;;;;;;22.15;56.47;99645.91;4445105;32;33738;-85
2022/07/27 01:04:27;;;;;;;6.45;4.18;;;;;;;22.14;55.65;99646.91;4447698;32;32999;-85
2022/07/27 01:06:56;;;;;;;4.35;3.80;;;;;;;22.21;55.56;99653.41;4437300;32;33155;-84
2022/07/27 01:12:16;;;;;;;6.57;3.87;;;;;;;22.43;54.17;99654.06;4458743;32;33364;-85
2022/07/27 01:14:44;;;;;;;4.70;3.78;;;;;;;22.30;54.42;99643.63;4462380;32;33083;-85
2022/07/27 01:17:12;;;;;;;3.90;3.47;;;;;;;22.18;54.88;99647.47;4448315;32;33877;-85
2022/07/27 01:19:40;;;;;;;4.60;3.80;;;;;;;22.26;54.61;99652.97;4457834;32;33889;-85
2022/07/27 01:22:08;;;;;;;6.40;3.17;;;;;;;22.36;53.87;99663.69;4449742;32;33481;-86
2022/07/27 01:24:36;;;;;;;5.53;3.50;;;;;;;22.19;53.89;99663.47;4461900;32;34703;-84
2022/07/27 01:27:05;;;;;;;3.60;3.03;;;;;;;22.12;54.11;99662.31;4449946;32;33175;-85
2022/07/27 01:29:34;;;;;;;4.72;4.00;;;;;;;22.12;54.21;99662.31;4456764;32;33938;-85
2022/07/27 01:32:03;;;;;;;3.80;3.50;;;;;;;22.32;53.72;99651.56;4437945;32;32803;-84
2022/07/27 01:34:34;;;;;;;4.15;3.72;;;;;;;22.39;53.77;99647.28;4438807;32;32789;-85
2022/07/27 01:37:03;;;;;;;4.30;3.62;;;;;;;22.42;53.75;99647.00;4449219;32;32706;-85
2022/07/27 01:39:33;;;;;;;4.05;3.22;;;;;;;22.50;53.23;99652.47;4458646;32;34495;-85
2022/07/27 01:42:00;;;;;;;5.45;3.87;;;;;;;22.49;53.45;99653.47;4459972;32;34054;-85
2022/07/27 01:44:30;;;;;;;8.20;4.18;;;;;;;22.31;54.07;99656.06;4446142;32;33375;-85
2022/07/27 01:46:57;;;;;;;6.28;4.57;;;;;;;21.98;55.38;99663.63;4459751;32;33509;-85
2022/07/27 01:49:26;;;;;;;6.40;4.22;;;;;;;22.07;55.50;99664.56;4459654;32;34505;-86
2022/07/27 01:51:54;;;;;;;5.45;4.72;;;;;;;22.00;55.84;99668.84;4460261;32;33873;-85
2022/07/27 01:54:23;;;;;;;7.50;5.18;;;;;;;21.77;56.92;99659.38;4435908;32;33252;-85
2022/07/27 01:56:51;;;;;;;5.68;4.90;;;;;;;21.88;56.74;99654.69;4473257;32;34882;-85
2022/07/27 01:59:19;;;;;;;6.28;5.68;;;;;;;21.90;56.69;99652.72;4446171;32;33029;-84
2022/07/27 02:01:47;;;;;;;8.88;5.22;;;;;;;21.82;57.13;99651.72;4463838;32;31983;-85
2022/07/27 02:04:17;;;;;;;10.52;5.93;;;;;;;21.65;57.59;99656.84;4459645;32;33905;-85
2022/07/27 02:06:44;;;;;;;7.53;5.93;;;;;;;21.90;56.93;99649.19;4460030;32;33579;-85
2022/07/27 02:09:12;;;;;;;6.60;6.00;;;;;;;21.59;57.98;99648.47;4444923;32;33560;-85
2022/07/27 02:14:27;;;;;;;8.05;5.25;;;;;;;21.69;57.55;99650.16;4459911;32;32663;-85
2022/07/27 02:16:55;;;;;;;5.97;5.35;;;;;;;21.65;57.65;99650.63;4447519;32;34450;-85
2022/07/27 02:19:23;;;;;;;5.75;5.12;;;;;;;21.62;57.71;99653.59;4461592;32;33856;-85
2022/07/27 02:21:51;;;;;;;6.18;5.57;;;;;;;21.73;57.28;99648.91;4457527;32;32929;-85
2022/07/27 02:24:19;;;;;;;7.75;6.07;;;;;;;21.62;57.50;99649.06;4445135;32;32739;-85
2022/07/27 02:26:47;;;;;;;11.75;5.65;;;;;;;21.73;57.12;99651.59;4456915;32;33981;-85
2022/07/27 02:29:16;;;;;;;7.03;5.53;;;;;;;21.69;57.08;99652.00;4457903;32;33124;-85
2022/07/27 02:31:44;;;;;;;7.85;5.30;;;;;;;21.39;57.56;99653.84;4460303;32;32979;-85
2022/07/27 02:34:11;;;;;;;6.15;4.93;;;;;;;21.59;57.15;99657.37;4458573;32;34129;-85
2022/07/27 02:36:39;;;;;;;7.53;5.00;;;;;;;21.29;57.89;99646.72;4444175;32;33976;-85
2022/07/27 02:39:07;;;;;;;5.68;5.15;;;;;;;21.52;57.14;99658.94;4444954;32;33963;-84
2022/07/27 02:41:35;;;;;;;6.15;4.65;;;;;;;21.41;57.47;99665.31;4460831;32;31808;-86
2022/07/27 02:44:03;;;;;;;9.05;5.12;;;;;;;21.42;57.39;99658.94;4457527;32;33907;-86
2022/07/27 02:46:31;;;;;;;5.93;5.28;;;;;;;21.57;57.02;99654.00;4422153;32;33491;-86
2022/07/27 02:48:59;;;;;;;7.55;4.82;;;;;;;21.34;57.57;99656.09;4447642;32;33405;-86
2022/07/27 02:51:27;;;;;;;4.75;4.35;;;;;;;21.47;57.04;99653.16;4453620;32;33822;-87
2022/07/27 02:53:55;;;;;;;6.28;4.57;;;;;;;21.35;57.26;99651.56;4443395;32;33720;-87
2022/07/27 02:56:23;;;;;;;5.35;4.22;;;;;;;21.38;57.04;99656.69;4459975;32;34449;-84
2022/07/27 02:58:54;;;;;;;7.03;4.97;;;;;;;21.30;57.22;99649.28;4457749;32;33464;-85
2022/07/27 03:01:22;;;;;;;6.05;4.60;;;;;;;21.15;57.79;99656.88;4444691;32;32916;-84
2022/07/27 03:03:51;;;;;;;7.30;4.75;;;;;;;21.22;57.63;99666.09;4445857;32;33076;-84
2022/07/27 03:06:19;;;;;;;5.37;4.85;;;;;;;21.17;57.78;99662.97;4460142;32;34447;-85
2022/07/27 03:08:47;;;;;;;7.20;5.20;;;;;;;21.21;57.68;99667.06;4435144;32;34517;-85
2022/07/27 03:11:18;;;;;;;8.55;5.00;;;;;;;21.11;58.11;99658.13;4473573;32;33144;-85
2022/07/27 03:13:46;;;;;;;6.70;4.93;;;;;;;21.18;57.55;99659.31;4435658;32;32984;-86
2022/07/27 03:16:17;;;;;;;9.32;4.78;;;;;;;21.06;57.76;99659.53;4445977;32;32862;-84
2022/07/27 03:18:45;;;;;;;17.30;5.47;;;;;;;21.08;58.46;99665.59;4473525;32;33425;-85
2022/07/27 03:21:18;;;;;;;7.53;4.03;;;;;;;21.09;58.46;99657.44;4450928;32;33401;-85
2022/07/27 03:23:48;;;;;;;6.22;4.95;;;;;;;21.12;58.11;99654.47;4449380;32;33098;-85
2022/07/27 03:26:18;;;;;;;5.20;4.25;;;;;;;21.12;57.90;99646.41;4448107;32;34811;-86
2022/07/27 03:28:45;;;;;;;7.87;5.15;;;;;;;21.04;58.17;99653.47;4458018;32;33471;-85
2022/07/27 03:31:14;;;;;;;8.88;5.35;;;;;;;20.94;58.49;99665.03;4449552;32;32272;-84
2022/07/27 03:33:42;;;;;;;11.02;5.28;;;;;;;21.01;58.36;99665.31;4440393;32;32887;-84
2022/07/27 03:36:10;;;;;;;9.38;5.45;;;;;;;20.41;60.46;99669.69;4448731;32;34791;-83
2022/07/27 03:38:39;;;;;;;9.63;5.85;;;;;;;20.50;60.29;99665.37;4458930;32;34499;-84
2022/07/27 03:41:07;;;;;;;7.28;5.00;;;;;;;20.39;60.89;99674.34;4459614;32;33846;-84
2022/07/27 03:43:34;;;;;;;8.32;5.05;;;;;;;20.56;60.10;99671.09;4475040;32;33448;-84
2022/07/27 03:46:03;;;;;;;9.82;5.37;;;;;;;20.51;60.21;99677.81;4472316;32;34000;-83
2022/07/27 03:48:31;;;;;;;7.10;4.72;;;;;;;20.54;60.28;99678.41;4441329;32;32868;-85
2022/07/27 03:50:59;;;;;;;7.75;4.80;;;;;;;20.69;59.91;99676.22;4449308;32;32317;-85
2022/07/27 03:53:26;;;;;;;7.15;5.25;;;;;;;20.86;59.44;99678.28;4461780;32;34201;-85
2022/07/27 03:55:54;;;;;;;5.93;5.25;;;;;;;20.88;59.08;99668.22;4459395;32;33910;-85
2022/07/27 03:58:23;;;;;;;5.22;4.72;;;;;;;20.68;59.57;99670.00;4472531;32;33837;-85
2022/07/27 04:00:52;;;;;;;7.68;4.93;;;;;;;20.93;59.06;99675.88;4460218;32;34158;-85
2022/07/27 04:03:20;;;;;;;6.25;4.68;;;;;;;21.06;58.75;99671.13;4450628;32;32815;-85
2022/07/27 04:05:48;;;;;;;5.72;5.20;;;;;;;21.21;58.42;99667.06;4447029;32;33549;-85
2022/07/27 04:08:16;;;;;;;4.53;3.85;;;;;;;21.18;58.36;99671.88;4461771;32;33773;-85
2022/07/27 04:10:46;;;;;;;8.15;4.70;;;;;;;21.48;57.64;99674.50;4461884;32;33722;-85
2022/07/27 04:13:14;;;;;;;6.90;4.68;;;;;;;21.88;56.71;99669.97;4457995;32;34419;-85
2022/07/27 04:15:47;;;;;;;5.57;5.05;;;;;;;21.68;57.72;99675.34;4466801;32;34449;-85
2022/07/27 04:18:15;;;;;;;8.23;4.78;;;;;;;21.84;57.53;99679.31;4459049;32;32113;-85
2022/07/27 04:20:47;;;;;;;5.30;4.43;;;;;;;22.05;57.08;99676.47;4461378;32;34175;-84
2022/07/27 04:25:49;;;;;;;6.28;4.87;;;;;;;22.26;55.89;99679.00;4459554;32;33422;-85
2022/07/27 04:28:17;;;;;;;8.55;5.10;;;;;;;22.46;56.00;99686.91;4442264;32;33999;-85
2022/07/27 04:30:45;;;;;;;7.03;4.47;;;;;;;22.28;56.40;99683.28;4462372;32;33334;-85
2022/07/27 04:33:13;;;;;;;7.00;4.65;;;;;;;22.48;56.41;99689.44;4463740;32;33211;-84
2022/07/27 04:35:42;;;;;;;5.18;4.55;;;;;;;22.56;56.10;99689.56;4466548;32;34779;-85
2022/07/27 04:38:10;;;;;;;6.15;4.70;;;;;;;22.77;54.92;99688.50;4458910;32;33873;-85
2022/07/27 04:40:38;;;;;;;6.30;4.28;;;;;;;22.78;55.09;99687.50;4460353;32;33998;-85
2022/07/27 04:43:12;;;;;;;8.85;4.85;;;;;;;23.12;53.96;99671.63;4461375;32;34139;-84
2022/07/27 04:45:40;;;;;;;12.07;5.00;;;;;;;22.96;54.17;99674.97;4447828;32;33577;-85
2022/07/27 04:48:09;;;;;;;11.80;4.75;;;;;;;22.85;54.43;99669.78;4446488;32;33454;-84
2022/07/27 04:50:40;;;;;;;6.22;4.22;;;;;;;23.10;53.51;99674.47;4456534;32;32647;-85
2022/07/27 04:53:10;;;;;;;6.50;4.35;;;;;;;22.86;53.56;99672.31;4453970;32;32761;-85
2022/07/27 04:55:47;;;;;;;6.30;4.60;;;;;;;22.88;53.16;99680.22;4466078;32;33532;-84
2022/07/27 04:58:16;;;;;;;4.95;3.95;;;;;;;23.19;51.96;99678.97;4461231;32;33536;-84
2022/07/27 05:00:45;;;;;;;4.75;3.97;;;;;;;23.34;51.65;99687.38;4444277;32;32125;-85
2022/07/27 05:03:14;;;;;;;5.05;4.37;;;;;;;23.32;51.62;99686.69;4464436;32;33560;-84
2022/07/27 05:05:47;;;;;;;6.50;4.25;;;;;;;23.53;50.98;99691.81;4460456;32;32885;-85
2022/07/27 05:08:20;;;;;;;6.70;4.12;;;;;;;23.69;50.57;99689.31;4462363;32;33963;-84
2022/07/27 05:10:49;;;;;;;5.43;4.43;;;;;;;23.66;50.06;99696.84;4449930;32;33381;-84
2022/07/27 05:13:17;;;;;;;5.22;3.75;;;;;;;23.74;50.16;99695.09;4458640;32;33330;-83
2022/07/27 05:15:45;;;;;;;6.35;4.20;;;;;;;24.06;49.66;99693.66;4456139;32;34022;-84
2022/07/27 05:18:24;;;;;;;5.05;4.55;;;;;;;24.40;48.26;99691.13;4460053;32;33809;-84
2022/07/27 05:21:01;;;;;;;5.32;4.20;;;;;;;24.06;49.42;99688.28;4449020;32;33256;-84
2022/07/27 05:23:31;;;;;;;11.77;5.75;;;;;;;24.18;48.75;99691.59;4455415;32;33593;-83
2022/07/27 05:25:59;;;;;;;10.32;4.43;;;;;;;24.37;50.10;99698.66;4446796;32;33697;-84
2022/07/27 05:28:27;;;;;;;7.22;4.37;;;;;;;24.34;49.68;99693.53;4460905;32;32838;-84
2022/07/27 05:30:56;;;;;;;6.03;4.30;;;;;;;24.28;48.47;99685.06;4460897;32;33398;-84
2022/07/27 05:33:25;;;;;;;5.70;4.05;;;;;;;24.46;48.48;99687.78;4475654;32;33645;-84
2022/07/27 05:35:55;;;;;;;5.80;4.15;;;;;;;24.94;48.30;99693.59;4450557;32;31173;-84
2022/07/27 05:38:25;;;;;;;6.22;3.65;;;;;;;25.06;48.36;99691.44;4449549;32;33386;-84
2022/07/27 05:40:53;;;;;;;6.95;4.22;;;;;;;25.05;47.65;99693.31;4459115;32;34023;-84
2022/07/27 05:43:21;;;;;;;7.70;4.10;;;;;;;24.99;47.18;99699.38;4453112;32;32809;-84
2022/07/27 05:45:51;;;;;;;6.37;3.60;;;;;;;25.32;47.96;99705.78;4468543;32;30590;-84
2022/07/27 05:48:21;;;;;;;7.32;4.50;;;;;;;25.55;48.96;99697.91;4464456;32;32800;-84
2022/07/27 05:50:49;;;;;;;5.40;3.72;;;;;;;25.59;45.66;99699.25;4462830;32;33140;-84
2022/07/27 05:56:02;;;;;;;6.70;4.12;;;;;;;25.56;46.39;99705.00;4461570;32;34395;-84
2022/07/27 05:58:34;;;;;;;4.70;4.18;;;;;;;25.86;46.68;99713.50;4465145;32;36416;-84
2022/07/27 06:01:04;;;;;;;19.00;7.00;;;;;;;25.99;44.44;99712.00;4449078;32;31492;-84
2022/07/27 06:03:34;;;;;;;6.65;4.10;;;;;;;26.20;46.09;99714.19;4454113;32;32217;-85
2022/07/27 06:08:56;;;;;;;7.70;4.45;;;;;;;26.07;43.68;99719.28;4463489;32;34225;-84
2022/07/27 06:11:27;;;;;;;5.55;3.87;;;;;;;26.14;43.31;99719.47;4473721;31;33440;-84
2022/07/27 06:13:56;;;;;;;4.62;3.50;;;;;;;26.00;42.85;99727.22;4455825;32;33705;-84
2022/07/27 06:16:26;;;;;;;7.70;3.85;;;;;;;26.31;42.93;99721.16;4455387;32;33521;-84
2022/07/27 06:18:58;;;;;;;5.65;3.12;;;;;;;26.45;42.36;99728.63;4438719;32;32744;-84
2022/07/27 06:21:35;;;;;;;4.55;3.90;;;;;;;26.38;41.80;99732.97;4463557;32;33884;-84
2022/07/27 06:24:04;;;;;;;4.65;4.18;;;;;;;26.60;41.16;99726.06;4465936;32;33538;-84
2022/07/27 06:26:33;;;;;;;4.28;3.25;;;;;;;26.89;40.54;99735.47;4453149;32;34946;-84
2022/07/27 06:29:01;;;;;;;3.12;2.83;;;;;;;27.13;39.35;99721.88;4466630;32;32123;-84
2022/07/27 06:31:38;;;;;;;6.25;3.62;;;;;;;27.39;38.58;99723.44;4465523;32;33308;-84
2022/07/27 06:34:11;;;;;;;8.50;3.20;;;;;;;27.40;38.90;99717.00;4468257;32;33196;-84
2022/07/27 06:36:44;;;;;;;6.10;3.20;;;;;;;27.57;37.35;99719.44;4465471;32;32725;-84
2022/07/27 06:39:15;;;;;;;12.48;2.97;;;;;;;27.34;38.47;99718.53;4450069;32;33204;-84
2022/07/27 06:41:46;;;;;;;4.03;3.35;;;;;;;27.88;37.25;99715.06;4451077;32;32613;-84
2022/07/27 06:44:19;;;;;;;4.55;3.50;;;;;;;27.95;37.26;99721.44;4453816;32;33770;-84
2022/07/27 06:46:48;;;;;;;7.20;3.10;;;;;;;28.13;36.79;99710.25;4476226;31;33309;-83
2022/07/27 06:49:19;;;;;;;7.35;3.67;;;;;;;28.33;36.38;99709.56;4440538;32;34026;-84
2022/07/27 06:51:47;;;;;;;4.37;3.57;;;;;;;28.01;37.73;99701.69;4461548;32;33179;-84
2022/07/27 06:54:16;;;;;;;4.87;2.87;;;;;;;28.31;37.22;99698.06;4480483;31;33107;-84
2022/07/27 06:56:47;;;;;;;3.10;2.65;;;;;;;28.69;35.82;99703.47;4452859;32;33908;-84
2022/07/27 06:59:19;;;;;;;3.45;2.47;;;;;;;28.65;35.11;99691.28;4467586;32;33152;-84
2022/07/27 07:01:50;;;;;;;3.72;2.42;;;;;;;28.93;34.52;99701.53;4462288;32;34018;-85
2022/07/27 07:04:19;;;;;;;6.37;2.37;;;;;;;28.76;32.23;99693.53;4460839;32;32955;-84
2022/07/27 07:06:53;;;;;;;3.03;2.08;;;;;;;28.58;32.63;99701.19;4453837;32;33276;-83
2022/07/27 07:09:30;;;;;;;2.35;1.98;;;;;;;28.10;32.34;99707.91;4445747;32;32431;-84
2022/07/27 07:12:06;;;;;;;2.85;1.70;;;;;;;28.49;31.30;99705.06;4438057;32;31837;-84
2022/07/27 07:14:44;;;;;;;3.97;2.12;;;;;;;28.32;32.54;99705.16;4442263;32;32792;-84
2022/07/27 07:17:16;;;;;;;2.33;1.67;;;;;;;28.41;31.96;99702.41;4440186;32;33236;-84
2022/07/27 07:19:51;;;;;;;3.03;1.85;;;;;;;28.34;32.22;99699.56;4468639;32;33637;-85
2022/07/27 07:22:24;;;;;;;3.22;1.58;;;;;;;27.95;31.62;99691.56;4455124;32;31131;-84
2022/07/27 07:24:57;;;;;;;2.70;2.00;;;;;;;28.26;30.73;99681.47;4465430;32;34114;-84
2022/07/27 07:27:37;;;;;;;3.72;2.42;;;;;;;28.24;32.37;99688.94;4455356;32;34809;-85
2022/07/27 07:30:10;;;;;;;7.75;2.28;;;;;;;28.49;30.27;99686.88;4438060;32;32946;-84
2022/07/27 07:32:42;;;;;;;3.42;1.70;;;;;;;28.19;31.91;99685.94;4455860;32;34049;-84
2022/07/27 07:35:15;;;;;;;2.62;1.77;;;;;;;28.03;31.04;99686.09;4451686;32;33903;-85
2022/07/27 07:37:47;;;;;;;;;;;;;;;28.23;31.72;99691.84;4479627;31;33174;-84
2022/07/27 07:40:18;;;;;;;3.92;1.67;;;;;;;28.43;30.50;99673.19;4459331;32;34715;-84
2022/07/27 07:43:08;;;;;;;5.03;2.15;;;;;;;28.69;32.24;99681.75;4459911;32;33096;-84
2022/07/27 07:45:37;;;;;;;3.30;2.12;;;;;;;28.40;30.77;99673.56;4450302;32;32414;-85
2022/07/27 07:48:21;;;;;;;4.83;1.97;;;;;;;28.97;28.23;99681.13;4463459;31;33412;-85
2022/07/27 07:50:57;;;;;;;4.80;2.12;;;;;;;29.03;28.35;99674.91;4459611;32;33001;-84
2022/07/27 07:56:15;;;;;;;5.10;2.30;;;;;;;28.66;30.58;99676.66;4462079;31;33046;-84
2022/07/27 07:58:54;;;;;;;3.70;1.83;;;;;;;29.19;28.67;99671.13;4453642;32;35037;-84
2022/07/27 08:01:24;;;;;;;2.90;2.12;;;;;;;29.47;28.78;99668.53;4470199;32;32944;-84
2022/07/27 08:03:59;;;;;;;6.05;2.42;;;;;;;29.29;31.34;99669.81;4435267;32;30784;-83
2022/07/27 08:06:28;;;;;;;5.57;2.10;;;;;;;29.89;27.91;99664.19;4460510;32;32959;-84
2022/07/27 08:09:05;;;;;;;2.65;2.00;;;;;;;29.99;29.20;99670.12;4460597;32;35054;-84
2022/07/27 08:11:35;;;;;;;4.55;2.45;;;;;;;30.00;27.38;99658.19;4454443;32;32498;-84
2022/07/27 08:14:10;;;;;;;4.50;2.20;;;;;;;29.89;28.73;99661.47;4460605;32;34467;-84
2022/07/27 08:16:41;;;;;;;3.47;3.22;;;;;;;30.10;28.33;99656.84;4442740;32;33509;-84
2022/07/27 08:19:15;;;;;;;2.78;1.90;;;;;;;30.32;28.80;99657.66;4468287;32;32694;-83
2022/07/27 08:21:46;;;;;;;3.17;1.92;;;;;;;30.04;29.26;99665.78;4434953;32;32656;-83
2022/07/27 08:24:21;;;;;;;5.80;2.12;;;;;;;30.16;28.86;99668.03;4471785;31;34560;-83
2022/07/27 08:26:52;;;;;;;4.18;2.47;;;;;;;30.16;27.44;99668.03;4437300;32;32967;-83
2022/07/27 08:29:22;;;;;;;3.42;2.35;;;;;;;30.07;26.94;99653.69;4464654;32;34047;-83
2022/07/27 08:32:05;;;;;;;12.50;3.20;;;;;;;30.45;28.07;99653.38;4465056;32;31900;-83
2022/07/27 08:34:34;;;;;;;6.28;5.57;;;;;;;30.92;26.02;99651.78;4454216;32;33513;-83
2022/07/27 08:37:07;;;;;;;12.98;6.65;;;;;;;30.78;25.81;99651.72;4463186;32;33826;-82
2022/07/27 08:39:44;;;;;;;13.43;10.88;;;;;;;30.81;25.03;99645.88;4455593;32;33367;-83
2022/07/27 08:42:24;;;;;;;9.10;8.20;;;;;;;31.02;25.31;99649.53;4450139;32;33064;-83
2022/07/27 08:45:00;;;;;;;7.82;6.18;;;;;;;30.97;24.60;99644.69;4450216;32;33606;-83
2022/07/27 08:47:31;;;;;;;5.75;4.85;;;;;;;30.68;27.70;99650.37;4463275;32;34108;-83
2022/07/27 08:49:59;;;;;;;5.82;3.72;;;;;;;30.92;26.87;99641.72;4469741;32;34322;-84
2022/07/27 08:52:28;;;;;;;6.97;4.65;;;;;;;31.19;26.57;99641.81;4461920;32;32450;-83
2022/07/27 08:54:56;;;;;;;6.22;4.68;;;;;;;31.41;25.28;99637.94;4468338;32;32375;-83
2022/07/27 08:57:25;;;;;;;11.00;9.60;;;;;;;31.68;24.92;99636.09;4452899;32;31886;-83
2022/07/27 08:59:55;;;;;;;9.50;8.23;;;;;;;31.34;26.96;99637.94;4455340;32;36752;-83
2022/07/27 09:02:25;;;;;;;;;;;;;;;31.75;24.97;99636.09;4446796;32;32313;-83
2022/07/27 09:04:54;;;;;;;6.50;5.22;;;;;;;32.12;23.69;99643.72;4466758;32;33423;-83
2022/07/27 09:07:30;;;;;;;9.10;4.57;;;;;;;32.18;25.39;99636.56;4465983;32;33964;-84
2022/07/27 09:10:00;;;;;;;8.55;4.55;;;;;;;31.42;24.37;99636.88;4462867;32;33022;-84
2022/07/27 09:12:30;;;;;;;5.50;4.70;;;;;;;30.85;24.43;99636.22;4465848;32;32679;-84
2022/07/27 09:15:11;;;;;;;10.35;5.18;;;;;;;31.16;25.00;99634.91;4464576;32;33181;-84
2022/07/27 09:17:43;;;;;;;6.68;5.22;;;;;;;30.61;25.27;99642.13;4463150;32;32883;-83
2022/07/27 09:20:19;;;;;;;7.95;4.97;;;;;;;30.75;24.25;99640.38;4473190;31;34421;-83
2022/07/27 09:22:53;;;;;;;5.40;4.90;;;;;;;31.01;24.03;99640.50;4458528;32;32560;-84
2022/07/27 09:25:25;;;;;;;7.55;6.50;;;;;;;31.34;24.20;99632.47;4468482;32;31697;-84
2022/07/27 09:28:28;;;;;;;8.32;5.78;;;;;;;31.04;23.59;99639.25;4448457;32;32619;-84
2022/07/27 09:31:06;;;;;;;8.98;5.93;;;;;;;31.04;23.95;99640.06;4467263;32;34817;-84
2022/07/27 09:33:46;;;;;;;6.30;5.62;;;;;;;30.79;25.77;99637.03;4463954;32;34058;-85
2022/07/27 09:36:18;;;;;;;5.78;4.82;;;;;;;31.16;23.51;99631.31;4440794;32;32550;-84
2022/07/27 09:38:54;;;;;;;6.15;5.32;;;;;;;31.52;23.23;99631.84;4452390;32;33795;-84
2022/07/27 09:41:43;;;;;;;6.15;5.60;;;;;;;31.48;23.42;99627.87;4448085;32;33303;-85
2022/07/27 09:44:15;;;;;;;6.35;4.82;;;;;;;31.66;23.40;99627.25;4450899;32;33713;-84
2022/07/27 09:47:25;;;;;;;6.40;5.00;;;;;;;32.00;23.33;99619.97;4452192;32;32653;-85
2022/07/27 09:50:19;;;;;;;8.40;5.35;;;;;;;31.84;22.53;99624.78;4462710;32;33924;-85
2022/07/27 09:53:09;;;;;;;6.07;4.70;;;;;;;31.53;22.98;99627.28;4463442;32;33992;-85
2022/07/27 09:56:08;;;;;;;6.53;5.82;;;;;;;31.97;24.42;99628.59;4448533;32;32496;-84
2022/07/27 09:58:52;;;;;;;5.25;4.72;;;;;;;32.30;23.08;99623.94;4459520;32;34026;-85
2022/07/27 10:01:25;;;;;;;5.03;4.53;;;;;;;32.35;22.12;99624.16;4466107;32;35477;-84
2022/07/27 10:03:57;;;;;;;5.45;4.40;;;;;;;32.52;21.67;99616.38;4449198;32;34400;-85
2022/07/27 10:06:29;;;;;;;8.73;5.00;;;;;;;32.93;22.15;99619.84;4461139;32;32656;-84
2022/07/27 10:09:17;;;;;;;4.82;4.43;;;;;;;32.68;21.29;99626.00;4460050;32;33705;-84
2022/07/27 10:11:54;;;;;;;7.68;4.43;;;;;;;32.88;20.88;99623.19;4476825;31;31583;-84
2022/07/27 10:14:24;;;;;;;6.22;5.62;;;;;;;32.50;22.89;99623.94;4449080;32;34440;-85
2022/07/27 10:17:09;;;;;;;8.15;7.32;;;;;;;32.92;20.43;99619.00;4440840;32;33328;-85
2022/07/27 10:19:49;;;;;;;7.75;6.87;;;;;;;33.08;20.75;99609.47;4461932;32;33693;-85
2022/07/27 10:25:32;;;;;;;11.43;6.62;;;;;;;32.90;21.34;99623.84;4467419;32;34335;-85
2022/07/27 10:28:10;;;;;;;10.02;6.45;;;;;;;32.86;20.82;99617.12;4460302;32;33315;-84
2022/07/27 10:30:43;;;;;;;6.78;6.15;;;;;;;33.18;21.27;99609.81;4464190;32;32719;-84
2022/07/27 10:33:43;;;;;;;5.95;5.35;;;;;;;32.72;23.04;99620.94;4461123;32;33165;-85
2022/07/27 10:36:22;;;;;;;7.10;6.07;;;;;;;32.94;20.25;99605.94;4466813;32;33351;-85
2022/07/27 10:38:56;;;;;;;6.57;5.68;;;;;;;33.20;20.90;99607.72;4478824;31;31584;-84
2022/07/27 10:41:33;;;;;;;6.15;5.55;;;;;;;33.45;21.32;99598.75;4474634;31;32747;-85
2022/07/27 10:44:16;;;;;;;5.53;5.03;;;;;;;32.97;22.06;99601.94;4465111;32;33167;-84
2022/07/27 10:46:53;;;;;;;7.70;4.87;;;;;;;33.19;22.45;99597.84;4467395;32;33575;-85
2022/07/27 10:49:38;;;;;;;7.78;4.85;;;;;;;33.57;20.33;99591.53;4435933;32;33076;-85
2022/07/27 10:52:41;;;;;;;5.10;4.53;;;;;;;33.51;20.26;99595.13;4480484;31;33151;-84
2022/07/27 10:55:29;;;;;;;5.17;4.37;;;;;;;33.67;19.74;99594.63;4468059;31;32964;-84
2022/07/27 10:58:13;;;;;;;8.60;4.62;;;;;;;33.84;18.87;99582.03;4463106;32;33623;-84
2022/07/27 11:00:50;;;;;;;10.85;4.75;;;;;;;33.39;22.41;99592.25;4451750;32;33102;-84
2022/07/27 11:03:24;;;;;;;7.03;4.90;;;;;;;33.59;21.67;99589.41;4450580;32;32392;-84
2022/07/27 11:06:26;;;;;;;4.97;4.53;;;;;;;33.60;21.91;99582.87;4465256;32;35056;-85
2022/07/27 11:09:05;;;;;;;4.97;4.30;;;;;;;34.37;19.09;99584.31;4460178;32;33995;-85
2022/07/27 11:11:56;;;;;;;5.40;4.90;;;;;;;33.77;19.05;99580.44;4448368;32;33816;-85
2022/07/27 11:17:31;;;;;;;4.82;4.32;;;;;;;34.01;20.05;99576.88;4461249;32;35959;-84
2022/07/27 11:23:20;;;;;;;8.00;4.80;;;;;;;34.10;18.39;99580.16;4457496;32;33329;-85
2022/07/27 11:26:10;;;;;;;5.05;4.55;;;;;;;33.94;19.16;99577.94;4461365;32;33457;-85
2022/07/27 11:28:42;;;;;;;5.47;4.87;;;;;;;33.67;22.80;99569.97;4460507;32;34485;-85
2022/07/27 11:31:26;;;;;;;4.72;4.22;;;;;;;34.33;18.19;99566.66;4446953;32;33234;-84
2022/07/27 11:34:08;;;;;;;6.72;4.78;;;;;;;33.96;18.46;99562.19;4462487;32;32727;-85
2022/07/27 11:36:41;;;;;;;5.25;4.65;;;;;;;34.24;19.14;99554.31;4439090;32;33297;-85
2022/07/27 11:39:17;;;;;;;5.30;4.55;;;;;;;34.81;18.11;99557.66;4462277;32;33842;-84
2022/07/27 11:44:54;;;;;;;4.97;4.47;;;;;;;33.72;19.04;99569.31;4461890;32;33903;-84
2022/07/27 11:47:29;;;;;;;5.90;4.20;;;;;;;33.52;19.25;99569.44;4461607;32;32809;-85
2022/07/27 11:50:14;;;;;;;5.40;4.40;;;;;;;33.60;20.71;99567.28;4457142;32;33141;-85
2022/07/27 11:52:42;;;;;;;5.22;4.15;;;;;;;34.05;19.71;99571.78;4462344;32;33990;-85
2022/07/27 11:55:11;;;;;;;4.95;4.18;;;;;;;33.32;19.43;99566.81;4473041;31;33502;-85
2022/07/27 12:00:19;;;;;;;4.65;4.20;;;;;;;33.42;21.09;99569.06;4463006;32;33319;-84
2022/07/27 12:02:55;;;;;;;7.82;5.10;;;;;;;34.11;19.46;99551.69;4460183;32;33516;-84
2022/07/27 12:05:26;;;;;;;4.50;4.10;;;;;;;34.12;22.64;99558.84;4472931;31;31564;-85
2022/07/27 12:08:04;;;;;;;5.20;4.55;;;;;;;33.84;21.66;99560.13;4456087;32;33618;-85
2022/07/27 12:10:35;;;;;;;4.93;4.43;;;;;;;33.68;19.74;99551.66;4470006;31;33494;-85
2022/07/27 12:13:07;;;;;;;4.72;4.32;;;;;;;32.97;20.09;99553.56;4458253;32;32448;-84
2022/07/27 12:15:42;;;;;;;5.85;4.60;;;;;;;33.02;20.46;99550.16;4458311;32;34833;-85
2022/07/27 12:18:22;;;;;;;6.37;4.05;;;;;;;33.35;20.08;99548.06;4469213;31;34089;-84
2022/07/27 12:20:53;;;;;;;4.53;3.95;;;;;;;33.52;19.93;99544.81;4463225;32;32353;-84
2022/07/27 12:23:30;;;;;;;8.43;4.60;;;;;;;33.47;20.85;99541.91;4438072;32;33961;-84
2022/07/27 12:26:20;;;;;;;4.70;3.97;;;;;;;33.91;19.25;99526.38;4469050;31;33128;-84
2022/07/27 12:29:05;;;;;;;4.53;3.83;;;;;;;33.95;19.57;99527.63;4448521;32;33617;-84